Главная страница
METAR-TAF:

METAR-TAF

Аэропорты :

Йоэнсуу, Финляндия

широта: 62-40N, долгота: 029-38E, высота над уровнем моря: 119 м

Текущие метеонаблюдения

Эта сводка был подготовлена 9 минут назад, в 23:50 UTC
Ветер 5 Узел от восточно-юго-восточный
Температура -5°C
Влажность 93%
Давление 1030 hPa
Видимость: 7000 м
Сплошная облачность на высоте 400 фута
небольшой снег

METAR: EFJO 182350Z AUTO 12005KT 7000 -SN OVC004 M05/M06 Q1030

Время: 01:59 (23:59 UTC)

Прогноз

Эта сводка был подготовлена 1 час и 7 минут назад, в 22:52 UTC
Прогноз действительный с 18-го 22 UTC до 18-го 24 UTC
Ветер 4 Узел от восточно-юго-восточный
Видимость: 4000 м
Рассеянная облачность на высоте 500 фута
небольшой снег
временами
С 18-го 22 UTC до 18-го 24 UTC
Видимость: 2500 м
Рассеянная облачность на высоте 300 фута
небольшой снег

TAF: EFJO 182252Z 1822/1824 12004KT 4000 -SN BKN005 TEMPO 1822/1824 2500 -SN BKN003

Метеонаблюдения и прогнозы для более 4000 аэропортов (сводки METAR и TAF).

Имеющиеся станции представлены на карте желтыми и красными точками.

Чтобы увидеть название станции, наведите на нее мышь.

Затем щелкните, чтобы увидеть метеонаблюдения и метеопрогнозы.

Управление картой: чтобы увеличить масштаб, щелкните зеленые кнопки с черным крестиком; чтобы уменьшить масштаб, щелкните зеленую кнопку с тире; для просмотра соседних карт щелкайте зеленые стрелки.


METAR-TAF: